createdAt,value
2019-03-25T00:00:15.936Z,5.2
2019-03-25T00:01:16.604Z,5.2
2019-03-25T00:02:17.271Z,5.2
2019-03-25T00:03:17.939Z,5.1
2019-03-25T00:04:18.607Z,5.1
2019-03-25T00:05:19.278Z,5.1
2019-03-25T00:06:19.991Z,5.2
2019-03-25T00:07:20.659Z,5.2
2019-03-25T00:08:21.329Z,5.2
2019-03-25T00:09:21.997Z,5.1
2019-03-25T00:10:22.666Z,5.1
2019-03-25T00:11:23.336Z,5.2
2019-03-25T00:12:24.050Z,5.1
2019-03-25T00:13:24.718Z,5.1
2019-03-25T00:14:25.386Z,5.2
2019-03-25T00:15:26.052Z,5.1
2019-03-25T00:16:26.721Z,5.1
2019-03-25T00:17:27.389Z,5.2
2019-03-25T00:18:28.057Z,5.1
2019-03-25T00:19:28.725Z,5.1
2019-03-25T00:20:29.392Z,5.2
2019-03-25T00:21:30.062Z,5.2
2019-03-25T00:22:30.730Z,5.1
2019-03-25T00:23:31.397Z,5.1
2019-03-25T00:24:38.667Z,5.2
2019-03-25T00:25:33.725Z,5.1
2019-03-25T00:26:34.418Z,5.0
2019-03-25T00:27:35.061Z,5.1
2019-03-25T00:28:35.776Z,5.2
2019-03-25T00:29:36.444Z,5.0
2019-03-25T00:30:37.113Z,5.1
2019-03-25T00:31:37.781Z,5.0
2019-03-25T00:32:38.448Z,5.1
2019-03-25T00:33:39.117Z,5.0
2019-03-25T00:34:39.784Z,5.0
2019-03-25T00:35:40.451Z,5.0
2019-03-25T00:36:41.118Z,5.0
2019-03-25T00:37:41.789Z,4.9
2019-03-25T00:38:42.455Z,4.9
2019-03-25T00:39:43.124Z,4.8
2019-03-25T00:40:43.791Z,4.9
2019-03-25T00:41:44.509Z,4.8
2019-03-25T00:42:45.177Z,4.8
2019-03-25T00:43:45.848Z,4.8
2019-03-25T00:44:46.512Z,4.7
2019-03-25T00:45:47.181Z,4.7
2019-03-25T00:46:47.850Z,4.6
2019-03-25T00:47:48.517Z,4.6
2019-03-25T00:48:49.237Z,4.6
2019-03-25T00:49:49.901Z,4.7
2019-03-25T00:50:50.568Z,4.6
2019-03-25T00:51:51.237Z,4.6
2019-03-25T00:52:51.903Z,4.6
2019-03-25T00:53:52.572Z,4.7
2019-03-25T00:54:53.241Z,4.7
2019-03-25T00:55:53.908Z,4.7
2019-03-25T00:56:54.576Z,4.6
2019-03-25T00:57:55.242Z,4.6
2019-03-25T00:58:55.912Z,4.7
2019-03-25T00:59:56.579Z,4.7
2019-03-25T01:00:57.250Z,4.7
2019-03-25T01:01:57.916Z,4.8
2019-03-25T01:02:58.583Z,4.9
2019-03-25T01:03:59.251Z,4.9
2019-03-25T01:04:59.919Z,4.8
2019-03-25T01:06:00.585Z,4.9
2019-03-25T01:07:01.252Z,4.8
2019-03-25T01:08:01.973Z,4.9
2019-03-25T01:09:02.643Z,4.9
2019-03-25T01:10:03.355Z,4.8
2019-03-25T01:11:04.024Z,4.9
2019-03-25T01:12:04.690Z,4.8
2019-03-25T01:13:05.358Z,4.9
2019-03-25T01:14:06.025Z,4.9
2019-03-25T01:15:06.694Z,4.9
2019-03-25T01:16:07.363Z,4.9
2019-03-25T01:17:08.030Z,5.0
2019-03-25T01:18:16.852Z,4.9
2019-03-25T01:19:09.407Z,5.0
2019-03-25T01:20:10.086Z,5.0
2019-03-25T01:21:10.756Z,5.0
2019-03-25T01:22:11.459Z,5.0
2019-03-25T01:23:12.127Z,4.9
2019-03-25T01:24:12.798Z,5.0
2019-03-25T01:25:13.465Z,5.0
2019-03-25T01:26:14.133Z,5.0
2019-03-25T01:27:14.800Z,5.0
2019-03-25T01:28:15.470Z,5.0
2019-03-25T01:29:16.139Z,5.1
2019-03-25T01:30:16.805Z,5.1
2019-03-25T01:31:17.472Z,5.2
2019-03-25T01:32:18.141Z,5.2
2019-03-25T01:33:18.809Z,5.2
2019-03-25T01:34:19.478Z,5.3
2019-03-25T01:35:20.148Z,5.2
2019-03-25T01:36:20.819Z,5.4
2019-03-25T01:37:21.527Z,5.3
2019-03-25T01:38:22.195Z,5.4
2019-03-25T01:39:22.863Z,5.4
2019-03-25T01:40:23.532Z,5.4
2019-03-25T01:41:24.199Z,5.4
2019-03-25T01:42:24.869Z,5.5
2019-03-25T01:43:25.537Z,5.5
2019-03-25T01:44:26.203Z,5.5
2019-03-25T01:45:26.921Z,5.5
2019-03-25T01:46:27.589Z,5.4
2019-03-25T01:47:28.256Z,5.5
2019-03-25T01:48:28.972Z,5.5
2019-03-25T01:49:29.640Z,5.4
2019-03-25T01:50:30.308Z,5.4
2019-03-25T01:51:30.980Z,5.4
2019-03-25T01:52:31.642Z,5.4
2019-03-25T01:53:32.312Z,5.4
2019-03-25T01:54:32.979Z,5.3
2019-03-25T01:55:33.648Z,5.3
2019-03-25T01:56:34.315Z,5.3
2019-03-25T01:57:34.983Z,5.2
2019-03-25T01:58:35.654Z,5.3
2019-03-25T01:59:36.321Z,5.2
2019-03-25T02:00:36.991Z,5.1
2019-03-25T02:01:37.655Z,5.0
2019-03-25T02:02:38.372Z,5.1
2019-03-25T02:03:39.037Z,5.0
2019-03-25T02:04:39.706Z,4.9
2019-03-25T02:05:40.372Z,4.9
2019-03-25T02:06:41.042Z,4.8
2019-03-25T02:07:41.709Z,4.7
2019-03-25T02:08:42.381Z,4.7
2019-03-25T02:09:43.049Z,4.7
2019-03-25T02:10:43.719Z,4.7
2019-03-25T02:11:44.388Z,4.7
2019-03-25T02:12:45.054Z,4.7
2019-03-25T02:13:45.750Z,4.7
2019-03-25T02:14:46.418Z,4.8
2019-03-25T02:15:47.084Z,4.8
2019-03-25T02:16:47.754Z,4.8
2019-03-25T02:17:48.420Z,4.8
2019-03-25T02:18:49.090Z,4.8
2019-03-25T02:19:49.755Z,4.8
2019-03-25T02:20:50.423Z,4.9
2019-03-25T02:21:51.091Z,5.0
2019-03-25T02:22:51.923Z,4.9
2019-03-25T02:23:52.685Z,4.9
2019-03-25T02:24:53.352Z,4.8
2019-03-25T02:25:54.021Z,4.9
2019-03-25T02:26:54.689Z,4.8
2019-03-25T02:27:55.358Z,4.8
2019-03-25T02:28:56.025Z,4.8
2019-03-25T02:29:56.694Z,4.7
2019-03-25T02:30:57.363Z,4.7
2019-03-25T02:31:58.031Z,4.6
2019-03-25T02:32:58.698Z,4.6
2019-03-25T02:33:59.366Z,4.5
2019-03-25T02:35:00.036Z,4.5
2019-03-25T02:36:00.699Z,4.4
2019-03-25T02:37:01.376Z,4.4
2019-03-25T02:38:02.108Z,4.4
2019-03-25T02:39:02.765Z,4.4
2019-03-25T02:40:03.431Z,4.3
2019-03-25T02:41:04.108Z,4.3
2019-03-25T02:42:04.768Z,4.3
2019-03-25T02:43:05.435Z,4.3
2019-03-25T02:44:06.101Z,4.3
2019-03-25T02:45:06.771Z,4.3
2019-03-25T02:46:07.459Z,4.2
2019-03-25T02:47:08.144Z,4.3
2019-03-25T02:48:08.812Z,4.3
2019-03-25T02:49:09.492Z,4.5
2019-03-25T02:50:10.144Z,4.4
2019-03-25T02:51:10.813Z,4.5
2019-03-25T02:52:11.529Z,4.6
2019-03-25T02:53:12.213Z,4.6
2019-03-25T02:54:12.869Z,4.6
2019-03-25T02:55:13.531Z,4.7
2019-03-25T02:56:14.244Z,4.9
2019-03-25T02:57:14.917Z,4.8
2019-03-25T02:58:15.580Z,4.8
2019-03-25T02:59:16.250Z,4.9
2019-03-25T03:00:16.965Z,4.8
2019-03-25T03:01:17.631Z,4.9
2019-03-25T03:02:18.299Z,4.8
2019-03-25T03:03:18.967Z,4.8
2019-03-25T03:04:19.646Z,4.9
2019-03-25T03:05:20.308Z,4.9
2019-03-25T03:06:20.969Z,4.8
2019-03-25T03:07:21.637Z,4.9
2019-03-25T03:08:22.305Z,4.9
2019-03-25T03:09:22.975Z,4.7
2019-03-25T03:10:23.640Z,4.9
2019-03-25T03:11:24.308Z,4.9
2019-03-25T03:12:24.975Z,4.9
2019-03-25T03:13:25.642Z,4.9
2019-03-25T03:14:26.310Z,4.8
2019-03-25T03:15:26.978Z,4.8
2019-03-25T03:16:27.643Z,4.8
2019-03-25T03:17:28.313Z,4.7
2019-03-25T03:18:28.985Z,4.7
2019-03-25T03:19:29.649Z,4.6
2019-03-25T03:20:30.315Z,4.7
2019-03-25T03:21:30.984Z,4.7
2019-03-25T03:22:31.652Z,4.7
2019-03-25T03:23:32.366Z,4.6
2019-03-25T03:24:33.034Z,4.7
2019-03-25T03:25:33.701Z,4.7
2019-03-25T03:26:34.368Z,4.7
2019-03-25T03:27:35.082Z,4.6
2019-03-25T03:28:35.750Z,4.6
2019-03-25T03:29:36.420Z,4.6
2019-03-25T03:30:37.135Z,4.5
2019-03-25T03:31:37.852Z,4.5
2019-03-25T03:32:38.512Z,4.5
2019-03-25T03:33:39.211Z,4.6
2019-03-25T03:34:39.883Z,4.5
2019-03-25T03:35:40.547Z,4.5
2019-03-25T03:36:41.215Z,4.5
2019-03-25T03:37:41.878Z,4.5
2019-03-25T03:38:42.545Z,4.5
2019-03-25T03:39:43.220Z,4.5
2019-03-25T03:40:43.930Z,4.5
2019-03-25T03:41:44.597Z,4.6
2019-03-25T03:42:45.266Z,4.5
2019-03-25T03:43:45.978Z,4.6
2019-03-25T03:44:46.646Z,4.5
2019-03-25T03:45:47.317Z,4.6
2019-03-25T03:46:47.979Z,4.7
2019-03-25T03:47:48.648Z,4.6
2019-03-25T03:48:49.320Z,4.8
2019-03-25T03:49:49.987Z,4.7
2019-03-25T03:50:50.648Z,4.8
2019-03-25T03:51:51.317Z,4.8
2019-03-25T03:52:51.984Z,4.7
2019-03-25T03:53:52.651Z,4.8
2019-03-25T03:54:53.319Z,4.9
2019-03-25T03:55:53.985Z,4.9
2019-03-25T03:56:54.657Z,4.8
2019-03-25T03:57:55.322Z,5.0
2019-03-25T03:58:55.991Z,5.0
2019-03-25T03:59:56.668Z,5.0
2019-03-25T04:00:57.373Z,5.0
2019-03-25T04:01:58.041Z,5.1
2019-03-25T04:02:58.756Z,5.1
2019-03-25T04:03:59.424Z,5.1
2019-03-25T04:05:00.093Z,5.1
2019-03-25T04:06:00.790Z,5.1
2019-03-25T04:07:01.462Z,5.2
2019-03-25T04:08:02.174Z,5.2
2019-03-25T04:09:02.841Z,5.2
2019-03-25T04:10:03.514Z,5.2
2019-03-25T04:11:04.177Z,5.2
2019-03-25T04:12:04.853Z,5.2
2019-03-25T04:13:05.510Z,5.2
2019-03-25T04:14:06.179Z,5.2
2019-03-25T04:15:06.862Z,5.2
2019-03-25T04:16:07.520Z,5.2
2019-03-25T04:17:08.183Z,5.2
2019-03-25T04:18:08.905Z,5.3
2019-03-25T04:19:09.568Z,5.2
2019-03-25T04:20:10.236Z,5.2
2019-03-25T04:21:10.903Z,5.3
2019-03-25T04:22:11.570Z,5.3
2019-03-25T04:23:12.257Z,5.2
2019-03-25T04:24:12.904Z,5.3
2019-03-25T04:25:13.572Z,5.3
2019-03-25T04:26:27.639Z,5.3
2019-03-25T04:27:15.951Z,5.2
2019-03-25T04:28:16.664Z,5.3
2019-03-25T04:29:17.340Z,5.3
2019-03-25T04:30:17.999Z,5.2
2019-03-25T04:31:18.671Z,5.2
2019-03-25T04:32:19.393Z,5.2
2019-03-25T04:33:20.100Z,5.2
2019-03-25T04:34:20.774Z,5.2
2019-03-25T04:35:21.435Z,5.2
2019-03-25T04:36:22.102Z,5.1
2019-03-25T04:37:22.772Z,5.1
2019-03-25T04:38:23.490Z,5.0
2019-03-25T04:39:24.157Z,5.0
2019-03-25T04:40:24.825Z,5.1
2019-03-25T04:41:25.493Z,5.0
2019-03-25T04:42:26.161Z,5.1
2019-03-25T04:43:26.831Z,5.1
2019-03-25T04:44:27.540Z,5.1
2019-03-25T04:45:28.210Z,5.1
2019-03-25T04:46:28.876Z,5.1
2019-03-25T04:47:29.545Z,5.0
2019-03-25T04:48:30.212Z,5.0
2019-03-25T04:49:30.880Z,5.1
2019-03-25T04:50:31.549Z,5.0
2019-03-25T04:51:32.218Z,5.1
2019-03-25T04:52:32.885Z,5.0
2019-03-25T04:53:33.553Z,5.0
2019-03-25T04:54:34.224Z,5.0
2019-03-25T04:55:34.893Z,5.0
2019-03-25T04:56:39.839Z,5.0
2019-03-25T04:57:37.223Z,5.0
2019-03-25T04:58:37.895Z,5.0
2019-03-25T04:59:38.563Z,5.0
2019-03-25T05:00:39.227Z,5.1
2019-03-25T05:01:39.902Z,5.1
2019-03-25T05:02:40.615Z,5.1
2019-03-25T05:03:41.285Z,5.1
2019-03-25T05:04:41.957Z,5.2
2019-03-25T05:05:42.623Z,5.2
2019-03-25T05:06:43.290Z,5.2
2019-03-25T05:07:43.958Z,5.2
2019-03-25T05:08:44.629Z,5.3
2019-03-25T05:09:45.297Z,5.3
2019-03-25T05:10:45.968Z,5.4
2019-03-25T05:11:46.633Z,5.3
2019-03-25T05:12:47.304Z,5.3
2019-03-25T05:13:47.972Z,5.3
2019-03-25T05:14:48.641Z,5.3
2019-03-25T05:15:49.311Z,5.4
2019-03-25T05:16:50.027Z,5.4
2019-03-25T05:17:50.698Z,5.4
2019-03-25T05:18:51.372Z,5.3
2019-03-25T05:19:52.158Z,5.3
2019-03-25T05:20:52.781Z,5.3
2019-03-25T05:21:53.451Z,5.3
2019-03-25T05:22:54.125Z,5.3
2019-03-25T05:23:54.790Z,5.3
2019-03-25T05:24:55.460Z,5.3
2019-03-25T05:25:56.130Z,5.3
2019-03-25T05:26:56.801Z,5.3
2019-03-25T05:27:57.470Z,5.4
2019-03-25T05:28:58.140Z,5.3
2019-03-25T05:29:58.811Z,5.3
2019-03-25T05:30:59.481Z,5.2
2019-03-25T05:32:00.153Z,5.4
2019-03-25T05:33:00.824Z,5.3
2019-03-25T05:34:01.494Z,5.3
2019-03-25T05:35:02.179Z,5.4
2019-03-25T05:36:02.839Z,5.4
2019-03-25T05:37:03.510Z,5.2
2019-03-25T05:38:04.180Z,5.3
2019-03-25T05:39:04.854Z,5.2
2019-03-25T05:40:05.526Z,5.2
2019-03-25T05:41:06.197Z,5.3
2019-03-25T05:42:06.868Z,5.2
2019-03-25T05:43:07.539Z,5.3
2019-03-25T05:44:08.212Z,5.2
2019-03-25T05:45:08.882Z,5.1
2019-03-25T05:46:09.551Z,5.2
2019-03-25T05:47:10.221Z,5.2
2019-03-25T05:48:10.891Z,5.3
2019-03-25T05:49:11.562Z,5.3
2019-03-25T05:50:12.232Z,5.3
2019-03-25T05:51:12.903Z,5.3
2019-03-25T05:52:13.573Z,5.3
2019-03-25T05:53:14.245Z,5.4
2019-03-25T05:54:14.917Z,5.4
2019-03-25T05:55:15.587Z,5.4
2019-03-25T05:56:16.262Z,5.3
2019-03-25T05:57:16.933Z,5.5
2019-03-25T05:58:17.606Z,5.4
2019-03-25T05:59:18.279Z,5.4
2019-03-25T06:00:18.952Z,5.3
2019-03-25T06:01:19.624Z,5.5
2019-03-25T06:02:20.298Z,5.4
2019-03-25T06:03:20.971Z,5.4
2019-03-25T06:04:21.648Z,5.5
2019-03-25T06:05:22.319Z,5.5
2019-03-25T06:06:22.992Z,5.5
2019-03-25T06:07:23.666Z,5.7
2019-03-25T06:08:24.339Z,5.9
2019-03-25T06:09:25.013Z,5.9
2019-03-25T06:10:25.687Z,6.1
2019-03-25T06:11:26.363Z,6.2
2019-03-25T06:12:27.034Z,6.3
2019-03-25T06:13:27.709Z,6.5
2019-03-25T06:14:28.380Z,6.6
2019-03-25T06:15:29.051Z,6.6
2019-03-25T06:16:29.723Z,6.7
2019-03-25T06:17:30.395Z,6.7
2019-03-25T06:18:31.069Z,6.8
2019-03-25T06:19:31.789Z,6.7
2019-03-25T06:20:32.462Z,6.6
2019-03-25T06:21:33.135Z,6.7
2019-03-25T06:22:33.809Z,6.6
2019-03-25T06:23:34.481Z,6.6
2019-03-25T06:24:35.160Z,6.6
2019-03-25T06:25:35.829Z,6.7
2019-03-25T06:26:36.502Z,6.6
2019-03-25T06:27:37.176Z,6.6
2019-03-25T06:28:37.848Z,6.5
2019-03-25T06:29:38.521Z,6.5
2019-03-25T06:30:39.197Z,6.5
2019-03-25T06:31:39.871Z,6.6
2019-03-25T06:32:40.552Z,6.6
2019-03-25T06:33:41.218Z,6.6
2019-03-25T06:34:41.893Z,6.6
2019-03-25T06:35:42.567Z,6.7
2019-03-25T06:36:43.240Z,6.7
2019-03-25T06:37:43.915Z,6.7
2019-03-25T06:38:44.589Z,6.8
2019-03-25T06:39:45.262Z,6.8
2019-03-25T06:40:45.940Z,6.8
2019-03-25T06:41:46.612Z,6.8
2019-03-25T06:42:47.285Z,6.8
2019-03-25T06:43:47.962Z,6.9
2019-03-25T06:44:48.688Z,6.8
2019-03-25T06:45:49.357Z,6.8
2019-03-25T06:46:50.030Z,6.8
2019-03-25T06:47:50.703Z,6.8
2019-03-25T06:48:51.378Z,6.8
2019-03-25T06:49:52.050Z,6.8
2019-03-25T06:50:52.723Z,6.7
2019-03-25T06:51:53.398Z,6.7
2019-03-25T06:52:54.071Z,6.8
2019-03-25T06:53:54.750Z,6.8
2019-03-25T06:54:55.419Z,6.7
2019-03-25T06:55:56.100Z,6.8
2019-03-25T06:56:56.767Z,6.7
2019-03-25T06:57:57.442Z,6.8
2019-03-25T06:58:58.116Z,6.8
2019-03-25T06:59:58.793Z,6.8
2019-03-25T07:00:59.465Z,6.8
2019-03-25T07:02:00.142Z,6.8
2019-03-25T07:03:00.813Z,6.8
2019-03-25T07:04:01.538Z,6.7
2019-03-25T07:05:02.274Z,6.8
2019-03-25T07:06:03.003Z,6.8
2019-03-25T07:07:03.722Z,6.8
2019-03-25T07:08:04.433Z,6.8
2019-03-25T07:09:05.105Z,6.9
2019-03-25T07:10:05.781Z,6.8
2019-03-25T07:11:06.454Z,6.8
2019-03-25T07:12:07.129Z,6.9
2019-03-25T07:13:07.804Z,6.9
2019-03-25T07:14:08.475Z,6.9
2019-03-25T07:15:09.149Z,6.9
2019-03-25T07:16:09.847Z,6.9
2019-03-25T07:17:10.545Z,7.0
2019-03-25T07:18:11.217Z,6.8
2019-03-25T07:19:11.892Z,6.7
2019-03-25T07:20:12.566Z,6.7
2019-03-25T07:21:13.237Z,6.6
2019-03-25T07:22:13.912Z,6.6
2019-03-25T07:23:14.628Z,6.6
2019-03-25T07:24:15.306Z,6.5
2019-03-25T07:25:16.012Z,6.5
2019-03-25T07:26:16.704Z,6.5
2019-03-25T07:27:17.376Z,6.5
2019-03-25T07:28:18.057Z,6.4
2019-03-25T07:29:18.772Z,6.4
2019-03-25T07:30:19.448Z,6.4
2019-03-25T07:31:20.121Z,6.5
2019-03-25T07:32:20.802Z,6.6
2019-03-25T07:33:21.470Z,6.7
2019-03-25T07:34:22.145Z,6.7
2019-03-25T07:35:22.834Z,6.9
2019-03-25T07:36:23.499Z,6.9
2019-03-25T07:37:24.172Z,7.0
2019-03-25T07:38:24.847Z,7.4
2019-03-25T07:39:25.523Z,7.5
2019-03-25T07:40:26.244Z,7.6
2019-03-25T07:41:26.920Z,7.6
2019-03-25T07:42:27.595Z,7.8
2019-03-25T07:43:28.273Z,8.3
2019-03-25T07:44:28.944Z,9.0
2019-03-25T07:45:29.622Z,9.7
2019-03-25T07:46:30.294Z,10.5
2019-03-25T07:47:30.969Z,11.2
2019-03-25T07:48:31.642Z,11.8
2019-03-25T07:49:32.319Z,12.3
2019-03-25T07:50:32.995Z,13.1
2019-03-25T07:51:33.670Z,13.4
2019-03-25T07:52:34.348Z,13.7
2019-03-25T07:53:35.032Z,14.2
2019-03-25T07:54:35.712Z,14.8
2019-03-25T07:55:36.380Z,15.2
2019-03-25T07:56:37.104Z,15.3
2019-03-25T07:57:47.621Z,15.3
2019-03-25T07:58:39.503Z,15.4
2019-03-25T07:59:40.180Z,15.7
2019-03-25T08:00:40.883Z,15.7
2019-03-25T08:01:41.563Z,15.7
2019-03-25T08:02:42.245Z,15.9
2019-03-25T08:03:42.890Z,15.8
2019-03-25T08:04:43.584Z,16.0
2019-03-25T08:05:44.248Z,16.3
2019-03-25T08:06:44.933Z,16.6
2019-03-25T08:07:45.605Z,16.9
2019-03-25T08:08:46.317Z,17.2
2019-03-25T08:09:46.977Z,17.3
2019-03-25T08:10:47.653Z,16.8
2019-03-25T08:11:48.338Z,15.7
2019-03-25T08:12:49.014Z,14.9
2019-03-25T08:13:49.683Z,14.4
2019-03-25T08:14:50.376Z,14.3
2019-03-25T08:15:51.043Z,13.6
2019-03-25T08:16:51.753Z,12.9
2019-03-25T08:17:52.453Z,12.7
2019-03-25T08:18:53.133Z,11.9
2019-03-25T08:19:53.811Z,11.2
2019-03-25T08:20:54.524Z,10.5
2019-03-25T08:21:55.220Z,10.3
2019-03-25T08:22:55.900Z,10.3
2019-03-25T08:23:56.579Z,10.1
2019-03-25T08:24:57.259Z,9.9
2019-03-25T08:25:57.938Z,9.9
2019-03-25T08:26:58.617Z,9.8
2019-03-25T08:28:00.458Z,10.0
2019-03-25T08:29:00.966Z,10.4
2019-03-25T08:30:01.647Z,10.3
2019-03-25T08:31:02.327Z,10.1
2019-03-25T08:32:03.013Z,10.0
2019-03-25T08:33:03.734Z,10.0
2019-03-25T08:34:04.411Z,9.8
2019-03-25T08:35:05.091Z,9.7
2019-03-25T08:36:05.767Z,9.7
2019-03-25T08:37:06.465Z,10.2
2019-03-25T08:38:07.124Z,10.9
2019-03-25T08:39:07.802Z,11.6
2019-03-25T08:40:08.482Z,12.4
2019-03-25T08:41:09.161Z,12.8
2019-03-25T08:42:09.840Z,13.2
2019-03-25T08:43:10.519Z,13.2
2019-03-25T08:44:11.198Z,13.4
2019-03-25T08:45:11.878Z,13.7
2019-03-25T08:46:12.563Z,13.7
2019-03-25T08:47:13.283Z,13.3
2019-03-25T08:48:13.963Z,13.8
2019-03-25T08:49:14.641Z,14.3
2019-03-25T08:50:15.324Z,14.7
2019-03-25T08:51:16.000Z,14.8
2019-03-25T08:52:16.679Z,14.4
2019-03-25T08:53:17.408Z,13.8
2019-03-25T08:54:18.094Z,13.3
2019-03-25T08:55:18.769Z,12.9
2019-03-25T08:56:19.495Z,13.4
2019-03-25T08:57:20.182Z,12.9
2019-03-25T08:58:20.856Z,12.8
2019-03-25T08:59:21.582Z,12.4
2019-03-25T09:00:22.263Z,12.5
2019-03-25T09:01:22.942Z,12.3
2019-03-25T09:02:23.622Z,11.9
2019-03-25T09:03:24.299Z,12.5
2019-03-25T09:04:24.978Z,12.8
2019-03-25T09:05:25.660Z,13.3
2019-03-25T09:06:26.339Z,14.0
2019-03-25T09:07:27.017Z,14.1
2019-03-25T09:08:27.700Z,14.4
2019-03-25T09:09:28.376Z,14.9
2019-03-25T09:10:29.057Z,15.4
2019-03-25T09:11:29.736Z,15.3
2019-03-25T09:12:30.415Z,15.1
2019-03-25T09:13:31.096Z,15.0
2019-03-25T09:14:31.775Z,14.7
2019-03-25T09:15:32.455Z,14.6
2019-03-25T09:16:33.134Z,14.9
2019-03-25T09:17:33.812Z,14.7
2019-03-25T09:18:34.496Z,14.7
2019-03-25T09:19:35.221Z,14.9
2019-03-25T09:20:35.901Z,14.9
2019-03-25T09:21:36.582Z,15.0
2019-03-25T09:22:37.309Z,15.4
2019-03-25T09:23:37.991Z,16.1
2019-03-25T09:24:38.672Z,16.2
2019-03-25T09:25:39.352Z,16.3
2019-03-25T09:26:40.032Z,15.6
2019-03-25T09:27:40.711Z,15.1
2019-03-25T09:28:41.394Z,15.2
2019-03-25T09:29:42.076Z,15.1
2019-03-25T09:30:42.760Z,15.0
2019-03-25T09:31:43.438Z,15.2
2019-03-25T09:32:44.119Z,15.2
2019-03-25T09:33:44.802Z,15.4
2019-03-25T09:34:45.484Z,15.5
2019-03-25T09:35:46.180Z,15.8
2019-03-25T09:36:46.845Z,15.8
2019-03-25T09:37:47.525Z,15.1
2019-03-25T09:38:48.210Z,14.8
2019-03-25T09:39:48.890Z,14.4
2019-03-25T09:40:49.570Z,14.2
2019-03-25T09:41:50.253Z,14.3
2019-03-25T09:42:50.939Z,14.6
2019-03-25T09:43:51.615Z,15.0
2019-03-25T09:44:52.297Z,15.4
2019-03-25T09:45:52.978Z,15.7
2019-03-25T09:46:53.661Z,16.0
2019-03-25T09:47:54.342Z,15.9
2019-03-25T09:48:55.024Z,15.4
2019-03-25T09:49:55.704Z,15.4
2019-03-25T09:50:56.385Z,15.2
2019-03-25T09:51:57.118Z,14.8
2019-03-25T09:52:57.799Z,14.4
2019-03-25T09:53:58.489Z,14.1
2019-03-25T09:54:59.166Z,13.8
2019-03-25T09:55:59.891Z,13.5
2019-03-25T09:57:00.577Z,13.2
2019-03-25T09:58:01.254Z,12.9
2019-03-25T09:59:01.940Z,12.8
2019-03-25T10:00:02.617Z,12.9
2019-03-25T10:01:03.296Z,12.6
2019-03-25T10:02:03.980Z,12.5
2019-03-25T10:03:04.661Z,12.2
2019-03-25T10:04:05.344Z,12.1
2019-03-25T10:05:06.030Z,12.0
2019-03-25T10:06:06.704Z,11.9
2019-03-25T10:07:07.385Z,11.9
2019-03-25T10:08:08.065Z,11.8
2019-03-25T10:09:08.747Z,11.7
2019-03-25T10:10:09.473Z,11.7
2019-03-25T10:11:10.152Z,11.7
2019-03-25T10:12:10.834Z,11.4
2019-03-25T10:13:11.514Z,11.5
2019-03-25T10:14:12.194Z,11.3
2019-03-25T10:15:12.874Z,11.0
2019-03-25T10:16:13.553Z,11.0
2019-03-25T10:17:14.235Z,10.8
2019-03-25T10:18:14.916Z,10.6
2019-03-25T10:19:15.593Z,10.5
2019-03-25T10:20:16.273Z,10.6
2019-03-25T10:21:16.956Z,10.7
2019-03-25T10:22:17.684Z,10.8
2019-03-25T10:23:18.364Z,11.1
2019-03-25T10:24:19.047Z,11.3
2019-03-25T10:25:19.724Z,11.3
2019-03-25T10:26:20.403Z,11.5
2019-03-25T10:27:21.082Z,11.6
2019-03-25T10:28:21.762Z,11.6
2019-03-25T10:29:22.441Z,11.5
2019-03-25T10:30:23.122Z,11.3
2019-03-25T10:31:23.809Z,11.3
2019-03-25T10:32:24.535Z,11.1
2019-03-25T10:33:25.260Z,11.2
2019-03-25T10:34:25.941Z,11.0
2019-03-25T10:35:26.620Z,10.9
2019-03-25T10:36:27.297Z,10.7
2019-03-25T10:37:27.977Z,10.7
2019-03-25T10:38:28.656Z,10.5
2019-03-25T10:39:29.336Z,10.3
2019-03-25T10:40:30.014Z,10.2
2019-03-25T10:41:30.692Z,10.0
2019-03-25T10:42:31.371Z,9.8
2019-03-25T10:43:32.052Z,9.5
2019-03-25T10:44:32.776Z,9.4
2019-03-25T10:45:33.453Z,9.3
2019-03-25T10:46:34.131Z,9.1
2019-03-25T10:47:34.858Z,8.9
2019-03-25T10:48:35.535Z,8.8
2019-03-25T10:49:36.264Z,8.6
2019-03-25T10:50:36.937Z,8.6
2019-03-25T10:51:37.612Z,8.5
2019-03-25T10:52:38.291Z,8.7
2019-03-25T10:53:38.968Z,8.8
2019-03-25T10:54:39.758Z,9.0
2019-03-25T10:55:40.429Z,9.1
2019-03-25T10:56:48.964Z,9.4
2019-03-25T10:57:41.826Z,9.5
2019-03-25T10:58:42.504Z,9.8
2019-03-25T10:59:43.181Z,10.1
2019-03-25T11:00:43.859Z,10.2
2019-03-25T11:01:44.536Z,10.4
2019-03-25T11:02:45.288Z,10.6
2019-03-25T11:03:45.990Z,10.6
2019-03-25T11:04:46.670Z,10.9
2019-03-25T11:05:47.350Z,11.0
2019-03-25T11:06:48.081Z,11.2
2019-03-25T11:07:48.759Z,11.3
2019-03-25T11:08:49.437Z,11.3
2019-03-25T11:09:50.116Z,11.4
2019-03-25T11:10:50.794Z,11.4
2019-03-25T11:11:51.479Z,11.5
2019-03-25T11:12:52.203Z,11.4
2019-03-25T11:13:52.891Z,11.4
2019-03-25T11:14:53.566Z,11.3
2019-03-25T11:15:54.242Z,11.3
2019-03-25T11:16:54.922Z,11.3
2019-03-25T11:17:55.602Z,11.1
2019-03-25T11:18:56.282Z,11.1
2019-03-25T11:19:56.961Z,11.3
2019-03-25T11:20:57.640Z,11.2
2019-03-25T11:21:58.321Z,11.1
2019-03-25T11:22:59.000Z,10.9
2019-03-25T11:23:59.678Z,11.0
2019-03-25T11:25:00.360Z,10.9
2019-03-25T11:26:01.037Z,10.9
2019-03-25T11:27:01.718Z,11.0
2019-03-25T11:28:02.398Z,10.9
2019-03-25T11:29:08.281Z,10.9
2019-03-25T11:30:05.621Z,11.1
2019-03-25T11:31:05.468Z,11.2
2019-03-25T11:32:06.148Z,11.3
2019-03-25T11:33:06.828Z,11.3
2019-03-25T11:34:07.507Z,11.3
2019-03-25T11:35:08.187Z,10.9
2019-03-25T11:36:08.866Z,10.7
2019-03-25T11:37:09.545Z,10.6
2019-03-25T11:38:10.225Z,10.3
2019-03-25T11:39:10.903Z,10.1
2019-03-25T11:40:11.582Z,9.9
2019-03-25T11:41:12.264Z,9.8
2019-03-25T11:42:12.938Z,9.7
2019-03-25T11:43:13.622Z,9.4
2019-03-25T11:44:14.344Z,9.2
2019-03-25T11:45:15.021Z,8.9
2019-03-25T11:46:15.698Z,8.7
2019-03-25T11:47:16.374Z,8.3
2019-03-25T11:48:17.100Z,8.2
2019-03-25T11:49:17.775Z,8.0
2019-03-25T11:50:18.452Z,7.8
2019-03-25T11:51:19.127Z,7.4
2019-03-25T11:52:19.802Z,7.3
2019-03-25T11:53:20.480Z,7.1
2019-03-25T11:54:21.153Z,7.1
2019-03-25T11:55:21.829Z,7.0
2019-03-25T11:56:22.503Z,7.0
2019-03-25T11:57:23.178Z,7.0
2019-03-25T11:58:24.206Z,6.8
2019-03-25T11:59:24.823Z,6.6
2019-03-25T12:00:25.500Z,6.7
2019-03-25T12:01:26.177Z,6.7
2019-03-25T12:02:26.853Z,6.9
2019-03-25T12:03:27.530Z,6.9
2019-03-25T12:04:28.207Z,6.9
2019-03-25T12:05:28.885Z,6.9
2019-03-25T12:06:29.563Z,7.0
2019-03-25T12:07:30.237Z,6.8
2019-03-25T12:08:30.918Z,6.9
2019-03-25T12:09:31.591Z,6.9
2019-03-25T12:10:32.275Z,6.8
2019-03-25T12:11:32.992Z,6.9
2019-03-25T12:12:33.667Z,6.9
2019-03-25T12:13:34.344Z,6.9
2019-03-25T12:14:35.021Z,7.0
2019-03-25T12:15:35.697Z,7.0
2019-03-25T12:16:36.373Z,7.0
2019-03-25T12:17:37.049Z,6.9
2019-03-25T12:18:37.724Z,7.0
2019-03-25T12:19:38.401Z,7.0
2019-03-25T12:20:39.075Z,7.1
2019-03-25T12:21:39.755Z,7.2
2019-03-25T12:22:40.430Z,7.4
2019-03-25T12:23:41.104Z,7.5
2019-03-25T12:24:41.779Z,7.6
2019-03-25T12:25:42.454Z,7.7
2019-03-25T12:26:43.180Z,7.9
2019-03-25T12:27:43.858Z,8.1
2019-03-25T12:28:44.533Z,8.3
2019-03-25T12:29:45.207Z,8.3
2019-03-25T12:30:45.883Z,8.4
2019-03-25T12:31:46.561Z,8.4
2019-03-25T12:32:47.235Z,8.4
2019-03-25T12:33:47.912Z,8.3
2019-03-25T12:34:48.589Z,8.2
2019-03-25T12:35:49.265Z,8.3
2019-03-25T12:36:49.940Z,8.2
2019-03-25T12:37:50.621Z,8.2
2019-03-25T12:38:51.299Z,8.4
2019-03-25T12:39:52.020Z,8.6
2019-03-25T12:40:52.702Z,8.8
2019-03-25T12:41:53.375Z,8.9
2019-03-25T12:42:54.051Z,9.0
2019-03-25T12:43:54.774Z,9.0
2019-03-25T12:44:55.449Z,9.1
2019-03-25T12:45:56.126Z,9.2
2019-03-25T12:46:56.803Z,9.2
2019-03-25T12:47:57.482Z,9.2
2019-03-25T12:48:58.162Z,9.3
2019-03-25T12:49:58.836Z,9.4
2019-03-25T12:50:59.516Z,9.5
2019-03-25T12:52:00.191Z,9.3
2019-03-25T12:53:00.868Z,9.3
2019-03-25T12:54:01.543Z,9.3
2019-03-25T12:55:02.218Z,9.2
2019-03-25T12:56:02.895Z,9.1
2019-03-25T12:57:03.570Z,8.9
2019-03-25T12:58:04.246Z,8.7
2019-03-25T12:59:04.921Z,8.5
2019-03-25T13:00:05.599Z,8.4
2019-03-25T13:01:06.279Z,8.3
2019-03-25T13:02:07.006Z,8.3
2019-03-25T13:03:07.727Z,8.1
2019-03-25T13:04:08.405Z,7.9
2019-03-25T13:05:09.080Z,7.9
2019-03-25T13:06:09.755Z,7.7
2019-03-25T13:07:10.434Z,7.6
2019-03-25T13:08:11.112Z,7.7
2019-03-25T13:09:11.785Z,7.7
2019-03-25T13:10:12.462Z,7.7
2019-03-25T13:11:13.139Z,7.8
2019-03-25T13:12:13.815Z,7.8
2019-03-25T13:13:14.492Z,7.8
2019-03-25T13:14:15.168Z,7.8
2019-03-25T13:15:15.841Z,8.0
2019-03-25T13:16:16.519Z,7.9
2019-03-25T13:17:17.194Z,7.9
2019-03-25T13:18:17.870Z,7.9
2019-03-25T13:19:18.545Z,8.0
2019-03-25T13:20:19.220Z,8.1
2019-03-25T13:21:19.900Z,8.2
2019-03-25T13:22:20.577Z,8.2
2019-03-25T13:23:21.253Z,8.4
2019-03-25T13:24:21.932Z,8.6
2019-03-25T13:25:22.612Z,8.7
2019-03-25T13:26:23.289Z,8.9
2019-03-25T13:27:23.962Z,8.9
2019-03-25T13:28:24.641Z,9.0
2019-03-25T13:29:25.319Z,9.1
2019-03-25T13:30:25.996Z,9.2
2019-03-25T13:31:26.673Z,9.2
2019-03-25T13:32:27.349Z,9.4
2019-03-25T13:33:29.444Z,9.3
2019-03-25T13:34:28.744Z,9.4
2019-03-25T13:35:29.427Z,9.5
2019-03-25T13:36:30.151Z,9.5
2019-03-25T13:37:30.826Z,9.5
2019-03-25T13:38:31.503Z,9.5
2019-03-25T13:39:32.227Z,9.3
2019-03-25T13:40:32.904Z,9.2
2019-03-25T13:41:33.580Z,9.3
2019-03-25T13:42:34.258Z,9.4
2019-03-25T13:43:34.936Z,9.3
2019-03-25T13:44:35.611Z,9.0
2019-03-25T13:45:36.292Z,8.9
2019-03-25T13:46:36.970Z,8.8
2019-03-25T13:47:37.645Z,8.8